sensor_id;sensor_type;location;lat;lon;timestamp;temperature;humidity
27797;DHT22;15177;50.844;4.412;2023-12-04T00:01:45;3.50;99.90
27797;DHT22;15177;50.844;4.412;2023-12-04T00:04:13;3.70;99.90
27797;DHT22;15177;50.844;4.412;2023-12-04T00:06:41;3.60;99.90
27797;DHT22;15177;50.844;4.412;2023-12-04T00:09:09;3.40;99.90
27797;DHT22;15177;50.844;4.412;2023-12-04T00:11:34;3.40;99.90
27797;DHT22;15177;50.844;4.412;2023-12-04T00:14:03;3.40;99.90
27797;DHT22;15177;50.844;4.412;2023-12-04T00:16:33;3.40;99.90
27797;DHT22;15177;50.844;4.412;2023-12-04T00:19:01;3.40;99.90
27797;DHT22;15177;50.844;4.412;2023-12-04T00:21:27;3.40;99.90
27797;DHT22;15177;50.844;4.412;2023-12-04T00:23:55;3.40;99.90
27797;DHT22;15177;50.844;4.412;2023-12-04T00:26:21;3.50;99.90
27797;DHT22;15177;50.844;4.412;2023-12-04T00:28:46;3.60;99.90
27797;DHT22;15177;50.844;4.412;2023-12-04T00:31:12;3.70;99.90
27797;DHT22;15177;50.844;4.412;2023-12-04T00:33:38;3.40;99.90
27797;DHT22;15177;50.844;4.412;2023-12-04T00:36:06;3.40;99.90
27797;DHT22;15177;50.844;4.412;2023-12-04T00:38:32;3.50;99.90
27797;DHT22;15177;50.844;4.412;2023-12-04T00:40:57;3.50;99.90
27797;DHT22;15177;50.844;4.412;2023-12-04T00:43:23;3.40;99.90
27797;DHT22;15177;50.844;4.412;2023-12-04T00:45:50;3.50;99.90
27797;DHT22;15177;50.844;4.412;2023-12-04T00:48:16;3.60;99.90
27797;DHT22;15177;50.844;4.412;2023-12-04T00:50:42;3.50;99.90
27797;DHT22;15177;50.844;4.412;2023-12-04T00:53:09;3.40;99.90
27797;DHT22;15177;50.844;4.412;2023-12-04T00:55:35;3.50;99.90
27797;DHT22;15177;50.844;4.412;2023-12-04T00:58:03;3.40;99.90
27797;DHT22;15177;50.844;4.412;2023-12-04T01:00:31;3.60;99.90
27797;DHT22;15177;50.844;4.412;2023-12-04T01:02:56;3.60;99.90
27797;DHT22;15177;50.844;4.412;2023-12-04T01:05:22;3.60;99.90
27797;DHT22;15177;50.844;4.412;2023-12-04T01:07:48;3.70;99.90
27797;DHT22;15177;50.844;4.412;2023-12-04T01:10:13;3.80;99.90
27797;DHT22;15177;50.844;4.412;2023-12-04T01:12:39;3.80;99.90
27797;DHT22;15177;50.844;4.412;2023-12-04T01:15:05;3.80;99.90
27797;DHT22;15177;50.844;4.412;2023-12-04T01:17:33;3.60;99.90
27797;DHT22;15177;50.844;4.412;2023-12-04T01:19:58;3.60;99.90
27797;DHT22;15177;50.844;4.412;2023-12-04T01:22:43;3.60;99.90
27797;DHT22;15177;50.844;4.412;2023-12-04T01:25:09;3.60;99.90
27797;DHT22;15177;50.844;4.412;2023-12-04T01:27:35;3.70;99.90
27797;DHT22;15177;50.844;4.412;2023-12-04T01:30:04;3.70;99.90
27797;DHT22;15177;50.844;4.412;2023-12-04T01:32:29;3.60;99.90
27797;DHT22;15177;50.844;4.412;2023-12-04T01:34:55;3.60;99.90
27797;DHT22;15177;50.844;4.412;2023-12-04T01:37:21;3.50;99.90
27797;DHT22;15177;50.844;4.412;2023-12-04T01:39:46;3.60;99.90
27797;DHT22;15177;50.844;4.412;2023-12-04T01:42:12;3.60;99.90
27797;DHT22;15177;50.844;4.412;2023-12-04T01:44:37;3.60;99.90
27797;DHT22;15177;50.844;4.412;2023-12-04T01:47:04;3.60;99.90
27797;DHT22;15177;50.844;4.412;2023-12-04T01:49:30;3.50;99.90
27797;DHT22;15177;50.844;4.412;2023-12-04T01:51:56;3.40;99.90
27797;DHT22;15177;50.844;4.412;2023-12-04T01:54:22;3.40;99.90
27797;DHT22;15177;50.844;4.412;2023-12-04T01:56:48;3.50;99.90
27797;DHT22;15177;50.844;4.412;2023-12-04T01:59:16;3.50;99.90
27797;DHT22;15177;50.844;4.412;2023-12-04T02:01:42;3.50;99.90
27797;DHT22;15177;50.844;4.412;2023-12-04T02:04:10;3.50;99.90
27797;DHT22;15177;50.844;4.412;2023-12-04T02:06:36;3.50;99.90
27797;DHT22;15177;50.844;4.412;2023-12-04T02:09:04;3.50;99.90
27797;DHT22;15177;50.844;4.412;2023-12-04T02:11:32;3.50;99.90
27797;DHT22;15177;50.844;4.412;2023-12-04T02:13:58;3.60;99.90
27797;DHT22;15177;50.844;4.412;2023-12-04T02:16:27;3.70;99.90
27797;DHT22;15177;50.844;4.412;2023-12-04T02:18:54;3.50;99.90
27797;DHT22;15177;50.844;4.412;2023-12-04T02:21:20;3.30;99.90
27797;DHT22;15177;50.844;4.412;2023-12-04T02:23:50;3.40;99.90
27797;DHT22;15177;50.844;4.412;2023-12-04T02:26:16;3.40;99.90
27797;DHT22;15177;50.844;4.412;2023-12-04T02:28:48;3.40;99.90
27797;DHT22;15177;50.844;4.412;2023-12-04T02:31:18;3.50;99.90
27797;DHT22;15177;50.844;4.412;2023-12-04T02:33:45;3.50;99.90
27797;DHT22;15177;50.844;4.412;2023-12-04T02:36:12;3.50;99.90
27797;DHT22;15177;50.844;4.412;2023-12-04T02:38:41;3.60;99.90
27797;DHT22;15177;50.844;4.412;2023-12-04T02:41:09;3.60;99.90
27797;DHT22;15177;50.844;4.412;2023-12-04T02:43:35;3.50;99.90
27797;DHT22;15177;50.844;4.412;2023-12-04T02:46:03;3.50;99.90
27797;DHT22;15177;50.844;4.412;2023-12-04T02:48:32;3.50;99.90
27797;DHT22;15177;50.844;4.412;2023-12-04T02:50:57;3.50;99.90
27797;DHT22;15177;50.844;4.412;2023-12-04T02:53:25;3.30;99.90
27797;DHT22;15177;50.844;4.412;2023-12-04T02:55:53;3.20;99.90
27797;DHT22;15177;50.844;4.412;2023-12-04T02:58:19;3.20;99.90
27797;DHT22;15177;50.844;4.412;2023-12-04T03:00:47;3.20;99.90
27797;DHT22;15177;50.844;4.412;2023-12-04T03:03:12;3.30;99.90
27797;DHT22;15177;50.844;4.412;2023-12-04T03:05:38;3.40;99.90
27797;DHT22;15177;50.844;4.412;2023-12-04T03:08:04;3.50;99.90
27797;DHT22;15177;50.844;4.412;2023-12-04T03:10:31;3.60;99.90
27797;DHT22;15177;50.844;4.412;2023-12-04T03:12:57;3.60;99.90
27797;DHT22;15177;50.844;4.412;2023-12-04T03:15:23;3.40;99.90
27797;DHT22;15177;50.844;4.412;2023-12-04T03:17:54;3.30;99.90
27797;DHT22;15177;50.844;4.412;2023-12-04T03:20:20;3.40;99.90
27797;DHT22;15177;50.844;4.412;2023-12-04T03:22:45;3.40;99.90
27797;DHT22;15177;50.844;4.412;2023-12-04T03:25:11;3.50;99.90
27797;DHT22;15177;50.844;4.412;2023-12-04T03:27:41;3.50;99.90
27797;DHT22;15177;50.844;4.412;2023-12-04T03:30:07;3.50;99.90
27797;DHT22;15177;50.844;4.412;2023-12-04T03:32:35;3.30;99.90
27797;DHT22;15177;50.844;4.412;2023-12-04T03:35:01;3.40;99.90
27797;DHT22;15177;50.844;4.412;2023-12-04T03:37:29;3.40;99.90
27797;DHT22;15177;50.844;4.412;2023-12-04T03:39:57;3.40;99.90
27797;DHT22;15177;50.844;4.412;2023-12-04T03:42:23;3.30;99.90
27797;DHT22;15177;50.844;4.412;2023-12-04T03:44:49;3.40;99.90
27797;DHT22;15177;50.844;4.412;2023-12-04T03:47:19;3.30;99.90
27797;DHT22;15177;50.844;4.412;2023-12-04T03:49:50;3.30;99.90
27797;DHT22;15177;50.844;4.412;2023-12-04T03:52:19;3.40;99.90
27797;DHT22;15177;50.844;4.412;2023-12-04T03:54:44;3.40;99.90
27797;DHT22;15177;50.844;4.412;2023-12-04T03:57:10;3.30;99.90
27797;DHT22;15177;50.844;4.412;2023-12-04T03:59:36;3.20;99.90
27797;DHT22;15177;50.844;4.412;2023-12-04T04:02:02;3.40;99.90
27797;DHT22;15177;50.844;4.412;2023-12-04T04:04:27;3.40;99.90
27797;DHT22;15177;50.844;4.412;2023-12-04T04:06:53;3.40;99.90
27797;DHT22;15177;50.844;4.412;2023-12-04T04:09:19;3.30;99.90
27797;DHT22;15177;50.844;4.412;2023-12-04T04:11:45;3.30;99.90
27797;DHT22;15177;50.844;4.412;2023-12-04T04:14:13;3.40;99.90
27797;DHT22;15177;50.844;4.412;2023-12-04T04:16:40;3.30;99.90
27797;DHT22;15177;50.844;4.412;2023-12-04T04:19:09;3.30;99.90
27797;DHT22;15177;50.844;4.412;2023-12-04T04:21:39;3.30;99.90
27797;DHT22;15177;50.844;4.412;2023-12-04T04:24:06;3.40;99.90
27797;DHT22;15177;50.844;4.412;2023-12-04T04:26:34;3.30;99.90
27797;DHT22;15177;50.844;4.412;2023-12-04T04:28:59;3.50;99.90
27797;DHT22;15177;50.844;4.412;2023-12-04T04:31:27;3.50;99.90
27797;DHT22;15177;50.844;4.412;2023-12-04T04:33:55;3.40;99.90
27797;DHT22;15177;50.844;4.412;2023-12-04T04:36:21;3.40;99.90
27797;DHT22;15177;50.844;4.412;2023-12-04T04:38:46;3.50;99.90
27797;DHT22;15177;50.844;4.412;2023-12-04T04:41:18;3.50;99.90
27797;DHT22;15177;50.844;4.412;2023-12-04T04:43:43;3.50;99.90
27797;DHT22;15177;50.844;4.412;2023-12-04T04:46:09;3.50;99.90
27797;DHT22;15177;50.844;4.412;2023-12-04T04:48:37;3.40;99.90
27797;DHT22;15177;50.844;4.412;2023-12-04T04:51:03;3.40;99.90
27797;DHT22;15177;50.844;4.412;2023-12-04T04:53:29;3.50;99.90
27797;DHT22;15177;50.844;4.412;2023-12-04T04:55:55;3.50;99.90
27797;DHT22;15177;50.844;4.412;2023-12-04T04:58:22;3.50;99.90
27797;DHT22;15177;50.844;4.412;2023-12-04T05:00:53;3.60;99.90
27797;DHT22;15177;50.844;4.412;2023-12-04T05:03:21;3.70;99.90
27797;DHT22;15177;50.844;4.412;2023-12-04T05:05:46;3.60;99.90
27797;DHT22;15177;50.844;4.412;2023-12-04T05:08:12;3.70;99.90
27797;DHT22;15177;50.844;4.412;2023-12-04T05:10:39;3.70;99.90
27797;DHT22;15177;50.844;4.412;2023-12-04T05:13:04;3.70;99.90
27797;DHT22;15177;50.844;4.412;2023-12-04T05:15:30;3.60;99.90
27797;DHT22;15177;50.844;4.412;2023-12-04T05:17:56;3.60;99.90
27797;DHT22;15177;50.844;4.412;2023-12-04T05:20:21;3.70;99.90
27797;DHT22;15177;50.844;4.412;2023-12-04T05:22:47;3.60;99.90
27797;DHT22;15177;50.844;4.412;2023-12-04T05:25:14;3.60;99.90
27797;DHT22;15177;50.844;4.412;2023-12-04T05:27:42;3.60;99.90
27797;DHT22;15177;50.844;4.412;2023-12-04T05:30:10;3.60;99.90
27797;DHT22;15177;50.844;4.412;2023-12-04T05:32:40;3.70;99.90
27797;DHT22;15177;50.844;4.412;2023-12-04T05:35:06;3.60;99.90
27797;DHT22;15177;50.844;4.412;2023-12-04T05:37:32;3.70;99.90
27797;DHT22;15177;50.844;4.412;2023-12-04T05:39:57;3.70;99.90
27797;DHT22;15177;50.844;4.412;2023-12-04T05:42:23;3.70;99.90
27797;DHT22;15177;50.844;4.412;2023-12-04T05:44:49;3.80;99.90
27797;DHT22;15177;50.844;4.412;2023-12-04T05:47:20;3.90;99.90
27797;DHT22;15177;50.844;4.412;2023-12-04T05:49:46;3.90;99.90
27797;DHT22;15177;50.844;4.412;2023-12-04T05:52:15;4.00;99.90
27797;DHT22;15177;50.844;4.412;2023-12-04T05:54:40;4.10;99.90
27797;DHT22;15177;50.844;4.412;2023-12-04T05:57:08;4.10;99.90
27797;DHT22;15177;50.844;4.412;2023-12-04T05:59:34;4.00;99.90
27797;DHT22;15177;50.844;4.412;2023-12-04T06:02:02;3.80;99.90
27797;DHT22;15177;50.844;4.412;2023-12-04T06:04:28;3.80;99.90
27797;DHT22;15177;50.844;4.412;2023-12-04T06:06:54;3.80;99.90
27797;DHT22;15177;50.844;4.412;2023-12-04T06:09:19;3.90;99.90
27797;DHT22;15177;50.844;4.412;2023-12-04T06:11:45;3.90;99.90
27797;DHT22;15177;50.844;4.412;2023-12-04T06:14:15;4.00;99.90
27797;DHT22;15177;50.844;4.412;2023-12-04T06:16:40;4.10;99.90
27797;DHT22;15177;50.844;4.412;2023-12-04T06:19:11;3.90;99.90
27797;DHT22;15177;50.844;4.412;2023-12-04T06:21:36;4.00;99.90
27797;DHT22;15177;50.844;4.412;2023-12-04T06:24:02;4.10;99.90
27797;DHT22;15177;50.844;4.412;2023-12-04T06:26:33;4.10;99.90
27797;DHT22;15177;50.844;4.412;2023-12-04T06:29:00;4.00;99.90
27797;DHT22;15177;50.844;4.412;2023-12-04T06:31:26;4.20;99.90
27797;DHT22;15177;50.844;4.412;2023-12-04T06:33:54;4.10;99.90
27797;DHT22;15177;50.844;4.412;2023-12-04T06:36:21;4.10;99.90
27797;DHT22;15177;50.844;4.412;2023-12-04T06:38:47;4.20;99.90
27797;DHT22;15177;50.844;4.412;2023-12-04T06:41:18;4.10;99.90
27797;DHT22;15177;50.844;4.412;2023-12-04T06:43:44;4.00;99.90
27797;DHT22;15177;50.844;4.412;2023-12-04T06:46:14;3.90;99.90
27797;DHT22;15177;50.844;4.412;2023-12-04T06:48:41;4.00;99.90
27797;DHT22;15177;50.844;4.412;2023-12-04T06:51:08;4.00;99.90
27797;DHT22;15177;50.844;4.412;2023-12-04T06:53:34;4.00;99.90
27797;DHT22;15177;50.844;4.412;2023-12-04T06:55:59;4.10;99.90
27797;DHT22;15177;50.844;4.412;2023-12-04T06:58:25;4.10;99.90
27797;DHT22;15177;50.844;4.412;2023-12-04T07:00:50;4.00;99.90
27797;DHT22;15177;50.844;4.412;2023-12-04T07:03:16;4.00;99.90
27797;DHT22;15177;50.844;4.412;2023-12-04T07:05:42;4.00;99.90
27797;DHT22;15177;50.844;4.412;2023-12-04T07:08:08;4.00;99.90
27797;DHT22;15177;50.844;4.412;2023-12-04T07:10:35;4.10;99.90
27797;DHT22;15177;50.844;4.412;2023-12-04T07:13:01;4.20;99.90
27797;DHT22;15177;50.844;4.412;2023-12-04T07:15:27;4.10;99.90
27797;DHT22;15177;50.844;4.412;2023-12-04T07:17:55;4.40;99.90
27797;DHT22;15177;50.844;4.412;2023-12-04T07:20:21;4.40;99.90
27797;DHT22;15177;50.844;4.412;2023-12-04T07:22:49;4.20;99.90
27797;DHT22;15177;50.844;4.412;2023-12-04T07:25:14;4.10;99.90
27797;DHT22;15177;50.844;4.412;2023-12-04T07:27:41;4.20;99.90
27797;DHT22;15177;50.844;4.412;2023-12-04T07:30:07;4.10;99.90
27797;DHT22;15177;50.844;4.412;2023-12-04T07:32:35;4.10;99.90
27797;DHT22;15177;50.844;4.412;2023-12-04T07:35:04;4.20;99.90
27797;DHT22;15177;50.844;4.412;2023-12-04T07:37:30;4.00;99.90
27797;DHT22;15177;50.844;4.412;2023-12-04T07:39:56;4.10;99.90
27797;DHT22;15177;50.844;4.412;2023-12-04T07:42:26;4.00;99.90
27797;DHT22;15177;50.844;4.412;2023-12-04T07:44:51;4.10;99.90
27797;DHT22;15177;50.844;4.412;2023-12-04T07:47:17;4.20;99.90
27797;DHT22;15177;50.844;4.412;2023-12-04T07:49:45;4.30;99.90
27797;DHT22;15177;50.844;4.412;2023-12-04T07:52:10;4.20;99.90
27797;DHT22;15177;50.844;4.412;2023-12-04T07:54:39;4.00;99.90
27797;DHT22;15177;50.844;4.412;2023-12-04T07:57:07;4.00;99.90
27797;DHT22;15177;50.844;4.412;2023-12-04T07:59:33;4.00;99.90
27797;DHT22;15177;50.844;4.412;2023-12-04T08:01:58;3.90;99.90
27797;DHT22;15177;50.844;4.412;2023-12-04T08:04:24;3.90;99.90
27797;DHT22;15177;50.844;4.412;2023-12-04T08:06:52;3.90;99.90
27797;DHT22;15177;50.844;4.412;2023-12-04T08:09:18;4.00;99.90
27797;DHT22;15177;50.844;4.412;2023-12-04T08:11:46;3.90;99.90
27797;DHT22;15177;50.844;4.412;2023-12-04T08:14:12;4.00;99.90
27797;DHT22;15177;50.844;4.412;2023-12-04T08:16:38;4.00;99.90
27797;DHT22;15177;50.844;4.412;2023-12-04T08:19:04;3.90;99.90
27797;DHT22;15177;50.844;4.412;2023-12-04T08:21:32;3.90;99.90
27797;DHT22;15177;50.844;4.412;2023-12-04T08:23:58;3.80;99.90
27797;DHT22;15177;50.844;4.412;2023-12-04T08:26:24;3.90;99.90
27797;DHT22;15177;50.844;4.412;2023-12-04T08:28:52;3.80;99.90
27797;DHT22;15177;50.844;4.412;2023-12-04T08:31:18;3.80;99.90
27797;DHT22;15177;50.844;4.412;2023-12-04T08:33:44;3.80;99.90
27797;DHT22;15177;50.844;4.412;2023-12-04T08:36:11;3.90;99.90
27797;DHT22;15177;50.844;4.412;2023-12-04T08:38:39;4.00;99.90
27797;DHT22;15177;50.844;4.412;2023-12-04T08:41:05;3.90;99.90
27797;DHT22;15177;50.844;4.412;2023-12-04T08:43:31;3.90;99.90
27797;DHT22;15177;50.844;4.412;2023-12-04T08:45:59;3.90;99.90
27797;DHT22;15177;50.844;4.412;2023-12-04T08:48:26;3.90;99.90
27797;DHT22;15177;50.844;4.412;2023-12-04T08:50:52;3.80;99.90
27797;DHT22;15177;50.844;4.412;2023-12-04T08:53:17;3.80;99.90
27797;DHT22;15177;50.844;4.412;2023-12-04T08:55:45;3.80;99.90
27797;DHT22;15177;50.844;4.412;2023-12-04T08:58:11;3.90;99.90
27797;DHT22;15177;50.844;4.412;2023-12-04T09:00:37;3.90;99.90
27797;DHT22;15177;50.844;4.412;2023-12-04T09:03:08;3.70;99.90
27797;DHT22;15177;50.844;4.412;2023-12-04T09:05:34;3.80;99.90
27797;DHT22;15177;50.844;4.412;2023-12-04T09:08:00;3.90;99.90
27797;DHT22;15177;50.844;4.412;2023-12-04T09:10:28;3.80;99.90
27797;DHT22;15177;50.844;4.412;2023-12-04T09:12:54;3.60;99.90
27797;DHT22;15177;50.844;4.412;2023-12-04T09:15:20;3.70;99.90
27797;DHT22;15177;50.844;4.412;2023-12-04T09:17:46;3.60;99.90
27797;DHT22;15177;50.844;4.412;2023-12-04T09:20:14;3.50;99.90
27797;DHT22;15177;50.844;4.412;2023-12-04T09:22:40;3.50;99.90
27797;DHT22;15177;50.844;4.412;2023-12-04T09:25:09;3.60;99.90
27797;DHT22;15177;50.844;4.412;2023-12-04T09:30:49;3.70;99.90
27797;DHT22;15177;50.844;4.412;2023-12-04T09:33:29;3.60;99.90
27797;DHT22;15177;50.844;4.412;2023-12-04T09:36:20;3.60;99.90
27797;DHT22;15177;50.844;4.412;2023-12-04T09:38:48;3.70;99.90
27797;DHT22;15177;50.844;4.412;2023-12-04T09:41:15;3.70;99.90
27797;DHT22;15177;50.844;4.412;2023-12-04T09:43:44;3.80;99.90
27797;DHT22;15177;50.844;4.412;2023-12-04T09:46:13;3.80;99.90
27797;DHT22;15177;50.844;4.412;2023-12-04T09:48:41;3.70;99.90
27797;DHT22;15177;50.844;4.412;2023-12-04T09:51:09;3.60;99.90
27797;DHT22;15177;50.844;4.412;2023-12-04T09:53:38;3.50;99.90
27797;DHT22;15177;50.844;4.412;2023-12-04T09:56:04;3.40;99.90
27797;DHT22;15177;50.844;4.412;2023-12-04T09:58:34;3.50;99.90
27797;DHT22;15177;50.844;4.412;2023-12-04T10:01:03;3.30;99.90
27797;DHT22;15177;50.844;4.412;2023-12-04T10:03:32;3.30;99.90
27797;DHT22;15177;50.844;4.412;2023-12-04T10:06:01;3.10;99.90
27797;DHT22;15177;50.844;4.412;2023-12-04T10:08:27;3.20;99.90
27797;DHT22;15177;50.844;4.412;2023-12-04T10:10:53;3.30;99.90
27797;DHT22;15177;50.844;4.412;2023-12-04T10:13:19;3.40;99.90
27797;DHT22;15177;50.844;4.412;2023-12-04T10:15:50;3.30;99.90
27797;DHT22;15177;50.844;4.412;2023-12-04T10:18:30;3.30;99.90
27797;DHT22;15177;50.844;4.412;2023-12-04T10:21:10;3.20;99.90
27797;DHT22;15177;50.844;4.412;2023-12-04T10:23:38;3.20;99.90
27797;DHT22;15177;50.844;4.412;2023-12-04T10:26:05;3.10;99.90
27797;DHT22;15177;50.844;4.412;2023-12-04T10:28:32;3.10;99.90
27797;DHT22;15177;50.844;4.412;2023-12-04T10:30:58;3.20;99.90
27797;DHT22;15177;50.844;4.412;2023-12-04T10:33:26;3.10;99.90
27797;DHT22;15177;50.844;4.412;2023-12-04T10:35:54;3.10;99.90
27797;DHT22;15177;50.844;4.412;2023-12-04T10:38:21;3.00;99.90
27797;DHT22;15177;50.844;4.412;2023-12-04T10:40:50;3.00;99.90
27797;DHT22;15177;50.844;4.412;2023-12-04T10:43:21;3.10;99.90
27797;DHT22;15177;50.844;4.412;2023-12-04T10:45:51;3.10;99.90
27797;DHT22;15177;50.844;4.412;2023-12-04T10:48:21;3.10;99.90
27797;DHT22;15177;50.844;4.412;2023-12-04T10:50:48;3.20;99.90
27797;DHT22;15177;50.844;4.412;2023-12-04T10:53:21;3.20;99.90
27797;DHT22;15177;50.844;4.412;2023-12-04T10:55:49;3.50;99.90
27797;DHT22;15177;50.844;4.412;2023-12-04T10:58:15;3.40;99.90
27797;DHT22;15177;50.844;4.412;2023-12-04T11:00:49;3.40;99.90
27797;DHT22;15177;50.844;4.412;2023-12-04T11:03:40;3.50;99.90
27797;DHT22;15177;50.844;4.412;2023-12-04T11:06:20;3.50;99.90
27797;DHT22;15177;50.844;4.412;2023-12-04T11:08:51;3.50;99.90
27797;DHT22;15177;50.844;4.412;2023-12-04T11:11:31;3.60;99.90
27797;DHT22;15177;50.844;4.412;2023-12-04T11:14:05;3.60;99.90
27797;DHT22;15177;50.844;4.412;2023-12-04T11:16:51;3.70;99.90
27797;DHT22;15177;50.844;4.412;2023-12-04T11:19:38;3.80;99.90
27797;DHT22;15177;50.844;4.412;2023-12-04T11:22:07;4.00;99.90
27797;DHT22;15177;50.844;4.412;2023-12-04T11:24:33;3.90;99.90
27797;DHT22;15177;50.844;4.412;2023-12-04T11:27:03;3.80;99.90
27797;DHT22;15177;50.844;4.412;2023-12-04T11:29:29;3.80;99.90
27797;DHT22;15177;50.844;4.412;2023-12-04T11:31:55;3.70;99.90
27797;DHT22;15177;50.844;4.412;2023-12-04T11:34:24;3.80;99.90
27797;DHT22;15177;50.844;4.412;2023-12-04T11:36:51;4.00;99.90
27797;DHT22;15177;50.844;4.412;2023-12-04T11:39:18;3.80;99.90
27797;DHT22;15177;50.844;4.412;2023-12-04T11:41:45;3.80;99.90
27797;DHT22;15177;50.844;4.412;2023-12-04T11:44:14;3.80;99.90
27797;DHT22;15177;50.844;4.412;2023-12-04T11:46:55;3.90;99.90
27797;DHT22;15177;50.844;4.412;2023-12-04T11:49:29;3.90;99.90
27797;DHT22;15177;50.844;4.412;2023-12-04T11:52:04;3.90;99.90
27797;DHT22;15177;50.844;4.412;2023-12-04T11:55:00;3.90;99.90
27797;DHT22;15177;50.844;4.412;2023-12-04T11:57:33;3.90;99.90
27797;DHT22;15177;50.844;4.412;2023-12-04T12:02:41;4.00;99.90
27797;DHT22;15177;50.844;4.412;2023-12-04T12:05:12;4.10;99.90
27797;DHT22;15177;50.844;4.412;2023-12-04T12:13:50;4.00;99.90
27797;DHT22;15177;50.844;4.412;2023-12-04T12:16:22;4.10;99.90
27797;DHT22;15177;50.844;4.412;2023-12-04T12:18:48;4.20;99.90
27797;DHT22;15177;50.844;4.412;2023-12-04T12:21:17;4.20;99.90
27797;DHT22;15177;50.844;4.412;2023-12-04T12:23:43;4.20;99.90
27797;DHT22;15177;50.844;4.412;2023-12-04T12:26:09;4.30;99.90
27797;DHT22;15177;50.844;4.412;2023-12-04T12:28:35;4.30;99.90
27797;DHT22;15177;50.844;4.412;2023-12-04T12:31:04;4.40;99.90
27797;DHT22;15177;50.844;4.412;2023-12-04T12:33:29;4.40;99.90
27797;DHT22;15177;50.844;4.412;2023-12-04T12:36:01;4.30;99.90
27797;DHT22;15177;50.844;4.412;2023-12-04T12:38:29;4.10;99.90
27797;DHT22;15177;50.844;4.412;2023-12-04T12:40:57;4.20;99.90
27797;DHT22;15177;50.844;4.412;2023-12-04T12:43:23;4.20;99.90
27797;DHT22;15177;50.844;4.412;2023-12-04T12:45:54;4.20;99.90
27797;DHT22;15177;50.844;4.412;2023-12-04T12:48:19;4.20;99.90
27797;DHT22;15177;50.844;4.412;2023-12-04T12:50:52;4.20;99.90
27797;DHT22;15177;50.844;4.412;2023-12-04T12:53:20;4.30;99.90
27797;DHT22;15177;50.844;4.412;2023-12-04T12:55:47;4.30;99.90
27797;DHT22;15177;50.844;4.412;2023-12-04T12:58:14;4.30;99.90
27797;DHT22;15177;50.844;4.412;2023-12-04T13:00:41;4.30;99.90
27797;DHT22;15177;50.844;4.412;2023-12-04T13:03:18;4.30;99.90
27797;DHT22;15177;50.844;4.412;2023-12-04T13:05:47;4.30;99.90
27797;DHT22;15177;50.844;4.412;2023-12-04T13:08:13;4.20;99.90
27797;DHT22;15177;50.844;4.412;2023-12-04T13:10:41;4.10;99.90
27797;DHT22;15177;50.844;4.412;2023-12-04T13:13:13;4.20;99.90
27797;DHT22;15177;50.844;4.412;2023-12-04T13:15:39;4.20;99.90
27797;DHT22;15177;50.844;4.412;2023-12-04T13:18:08;4.20;99.90
27797;DHT22;15177;50.844;4.412;2023-12-04T13:20:33;4.20;99.90
27797;DHT22;15177;50.844;4.412;2023-12-04T13:23:00;4.20;99.90
27797;DHT22;15177;50.844;4.412;2023-12-04T13:25:28;4.30;99.90
27797;DHT22;15177;50.844;4.412;2023-12-04T13:27:56;4.40;99.90
27797;DHT22;15177;50.844;4.412;2023-12-04T13:30:22;4.30;99.90
27797;DHT22;15177;50.844;4.412;2023-12-04T13:32:48;4.40;99.90
27797;DHT22;15177;50.844;4.412;2023-12-04T13:35:15;4.50;99.90
27797;DHT22;15177;50.844;4.412;2023-12-04T13:37:41;4.50;99.90
27797;DHT22;15177;50.844;4.412;2023-12-04T13:40:08;4.60;99.90
27797;DHT22;15177;50.844;4.412;2023-12-04T13:42:45;4.40;99.90
27797;DHT22;15177;50.844;4.412;2023-12-04T13:45:30;4.50;99.90
27797;DHT22;15177;50.844;4.412;2023-12-04T13:47:57;4.40;99.90
27797;DHT22;15177;50.844;4.412;2023-12-04T13:50:24;4.40;99.90
27797;DHT22;15177;50.844;4.412;2023-12-04T13:52:52;4.40;99.90
27797;DHT22;15177;50.844;4.412;2023-12-04T13:55:24;4.40;99.90
27797;DHT22;15177;50.844;4.412;2023-12-04T13:58:05;4.40;99.90
27797;DHT22;15177;50.844;4.412;2023-12-04T14:00:30;4.40;99.90
27797;DHT22;15177;50.844;4.412;2023-12-04T14:02:57;4.40;99.90
27797;DHT22;15177;50.844;4.412;2023-12-04T14:05:30;4.30;99.90
27797;DHT22;15177;50.844;4.412;2023-12-04T14:07:56;4.30;99.90
27797;DHT22;15177;50.844;4.412;2023-12-04T14:10:24;4.40;99.90
27797;DHT22;15177;50.844;4.412;2023-12-04T14:12:51;4.40;99.90
27797;DHT22;15177;50.844;4.412;2023-12-04T14:15:17;4.30;99.90
27797;DHT22;15177;50.844;4.412;2023-12-04T14:17:48;4.30;99.90
27797;DHT22;15177;50.844;4.412;2023-12-04T14:20:14;4.40;99.90
27797;DHT22;15177;50.844;4.412;2023-12-04T14:22:46;4.40;99.90
27797;DHT22;15177;50.844;4.412;2023-12-04T14:25:14;4.40;99.90
27797;DHT22;15177;50.844;4.412;2023-12-04T14:27:40;4.40;99.90
27797;DHT22;15177;50.844;4.412;2023-12-04T14:30:10;4.40;99.90
27797;DHT22;15177;50.844;4.412;2023-12-04T14:32:36;4.30;99.90
27797;DHT22;15177;50.844;4.412;2023-12-04T14:35:03;4.30;99.90
27797;DHT22;15177;50.844;4.412;2023-12-04T14:37:30;4.30;99.90
27797;DHT22;15177;50.844;4.412;2023-12-04T14:39:55;4.40;99.90
27797;DHT22;15177;50.844;4.412;2023-12-04T14:42:23;4.50;99.90
27797;DHT22;15177;50.844;4.412;2023-12-04T14:44:49;4.40;99.90
27797;DHT22;15177;50.844;4.412;2023-12-04T14:47:15;4.50;99.90
27797;DHT22;15177;50.844;4.412;2023-12-04T14:49:41;4.50;99.90
27797;DHT22;15177;50.844;4.412;2023-12-04T14:52:06;4.50;99.90
27797;DHT22;15177;50.844;4.412;2023-12-04T14:54:33;4.50;99.90
27797;DHT22;15177;50.844;4.412;2023-12-04T14:57:26;4.60;99.90
27797;DHT22;15177;50.844;4.412;2023-12-04T15:00:12;4.60;99.90
27797;DHT22;15177;50.844;4.412;2023-12-04T15:02:47;4.60;99.90
27797;DHT22;15177;50.844;4.412;2023-12-04T15:05:48;4.60;99.90
27797;DHT22;15177;50.844;4.412;2023-12-04T15:08:16;4.60;99.90
27797;DHT22;15177;50.844;4.412;2023-12-04T15:11:01;4.60;99.90
27797;DHT22;15177;50.844;4.412;2023-12-04T15:13:44;4.60;99.90
27797;DHT22;15177;50.844;4.412;2023-12-04T15:16:10;4.70;99.90
27797;DHT22;15177;50.844;4.412;2023-12-04T15:18:50;4.60;99.90
27797;DHT22;15177;50.844;4.412;2023-12-04T15:21:19;4.70;99.90
27797;DHT22;15177;50.844;4.412;2023-12-04T15:23:44;4.60;99.90
27797;DHT22;15177;50.844;4.412;2023-12-04T15:26:13;4.60;99.90
27797;DHT22;15177;50.844;4.412;2023-12-04T15:28:41;4.60;99.90
27797;DHT22;15177;50.844;4.412;2023-12-04T15:31:07;4.60;99.90
27797;DHT22;15177;50.844;4.412;2023-12-04T15:33:33;4.70;99.90
27797;DHT22;15177;50.844;4.412;2023-12-04T15:36:01;4.80;99.90
27797;DHT22;15177;50.844;4.412;2023-12-04T15:38:30;4.80;99.90
27797;DHT22;15177;50.844;4.412;2023-12-04T15:40:58;4.80;99.90
27797;DHT22;15177;50.844;4.412;2023-12-04T15:43:23;4.80;99.90
27797;DHT22;15177;50.844;4.412;2023-12-04T15:45:51;4.80;99.90
27797;DHT22;15177;50.844;4.412;2023-12-04T15:48:17;4.80;99.90
27797;DHT22;15177;50.844;4.412;2023-12-04T15:50:43;4.80;99.90
27797;DHT22;15177;50.844;4.412;2023-12-04T15:53:09;4.70;99.90
27797;DHT22;15177;50.844;4.412;2023-12-04T15:55:34;4.80;99.90
27797;DHT22;15177;50.844;4.412;2023-12-04T15:58:00;4.80;99.90
27797;DHT22;15177;50.844;4.412;2023-12-04T16:00:29;4.80;99.90
27797;DHT22;15177;50.844;4.412;2023-12-04T16:02:56;4.90;99.90